createdAt,value
2022-11-29T00:01:18.519Z,12.02
2022-11-29T00:03:45.311Z,11.95
2022-11-29T00:06:17.979Z,13.30
2022-11-29T00:08:45.027Z,12.50
2022-11-29T00:11:40.105Z,11.95
2022-11-29T00:14:08.253Z,12.63
2022-11-29T00:16:35.210Z,12.52
2022-11-29T00:19:02.255Z,12.38
2022-11-29T00:21:29.510Z,11.63
2022-11-29T00:23:56.297Z,11.95
2022-11-29T00:26:23.394Z,11.88
2022-11-29T00:28:50.162Z,12.18
2022-11-29T00:31:25.050Z,11.65
2022-11-29T00:33:52.294Z,12.35
2022-11-29T00:36:19.838Z,12.25
2022-11-29T00:38:46.618Z,12.45
2022-11-29T00:41:13.446Z,12.88
2022-11-29T00:43:40.635Z,10.77
2022-11-29T00:46:08.049Z,11.90
2022-11-29T00:48:35.357Z,12.48
2022-11-29T00:51:02.505Z,11.77
2022-11-29T00:53:29.261Z,12.40
2022-11-29T00:55:56.174Z,12.13
2022-11-29T00:58:23.273Z,11.63
2022-11-29T01:00:50.011Z,11.73
2022-11-29T01:03:17.448Z,11.60
2022-11-29T01:05:44.878Z,11.95
2022-11-29T01:08:12.528Z,11.80
2022-11-29T01:10:39.315Z,12.00
2022-11-29T01:13:06.083Z,12.73
2022-11-29T01:15:33.059Z,10.77
2022-11-29T01:17:59.834Z,12.65
2022-11-29T01:20:26.970Z,13.07
2022-11-29T01:22:53.698Z,12.95
2022-11-29T01:25:20.644Z,13.15
2022-11-29T01:27:47.537Z,12.77
2022-11-29T01:30:14.707Z,12.52
2022-11-29T01:32:41.887Z,12.90
2022-11-29T01:35:09.045Z,12.75
2022-11-29T01:37:36.059Z,12.48
2022-11-29T01:40:03.632Z,11.85
2022-11-29T01:42:30.401Z,11.85
2022-11-29T01:45:02.039Z,12.65
2022-11-29T01:47:29.170Z,11.27
2022-11-29T01:49:56.147Z,11.55
2022-11-29T01:52:25.408Z,12.40
2022-11-29T01:54:56.093Z,13.45
2022-11-29T01:57:23.361Z,11.75
2022-11-29T01:59:55.084Z,12.63
2022-11-29T02:02:30.390Z,12.00
2022-11-29T02:04:58.280Z,11.35
2022-11-29T02:07:25.083Z,12.10
2022-11-29T02:09:51.873Z,12.75
2022-11-29T02:12:30.894Z,13.77
2022-11-29T02:15:07.803Z,12.52
2022-11-29T02:18:06.904Z,12.73
2022-11-29T02:20:39.157Z,11.77
2022-11-29T02:23:36.901Z,10.43
2022-11-29T02:26:48.966Z,10.65
2022-11-29T02:29:40.157Z,12.85
2022-11-29T02:32:37.469Z,11.90
2022-11-29T02:35:41.601Z,12.95
2022-11-29T02:38:20.812Z,12.48
2022-11-29T02:40:59.528Z,12.70
2022-11-29T02:43:32.666Z,10.93
2022-11-29T02:46:56.696Z,12.70
2022-11-29T02:49:30.670Z,11.95
2022-11-29T02:52:08.788Z,12.70
2022-11-29T02:54:44.840Z,12.15
2022-11-29T02:57:23.703Z,11.98
2022-11-29T03:00:06.694Z,11.77
2022-11-29T03:02:40.733Z,12.35
2022-11-29T03:05:20.100Z,12.93
2022-11-29T03:08:01.074Z,13.52
2022-11-29T03:10:33.007Z,14.48
2022-11-29T03:13:00.138Z,15.05
2022-11-29T03:15:29.854Z,13.13
2022-11-29T03:18:15.616Z,15.50
2022-11-29T03:21:14.042Z,14.80
2022-11-29T03:23:47.950Z,15.00
2022-11-29T03:26:19.177Z,15.23
2022-11-29T03:29:17.896Z,13.90
2022-11-29T03:32:12.794Z,13.93
2022-11-29T03:35:05.528Z,15.10
2022-11-29T03:37:55.285Z,13.80
2022-11-29T03:40:48.276Z,14.85
2022-11-29T03:43:30.781Z,14.00
2022-11-29T03:46:23.738Z,13.47
2022-11-29T03:48:57.700Z,14.02
2022-11-29T03:51:52.017Z,13.57
2022-11-29T03:54:26.216Z,13.93
2022-11-29T03:56:53.358Z,12.32
2022-11-29T03:59:41.659Z,12.75
2022-11-29T04:02:25.196Z,13.48
2022-11-29T04:05:10.619Z,11.95
2022-11-29T04:07:57.767Z,12.52
2022-11-29T04:10:42.870Z,13.80
2022-11-29T04:13:58.092Z,13.02
2022-11-29T04:16:54.941Z,11.93
2022-11-29T04:19:59.557Z,13.68
2022-11-29T04:22:40.609Z,12.32
2022-11-29T04:25:41.222Z,13.88
2022-11-29T04:28:38.358Z,12.13
2022-11-29T04:31:17.801Z,13.48
2022-11-29T04:34:07.722Z,12.85
2022-11-29T04:37:05.964Z,12.63
2022-11-29T04:39:42.652Z,12.35
2022-11-29T04:42:21.723Z,12.07
2022-11-29T04:45:16.045Z,12.80
2022-11-29T04:47:45.644Z,12.27
2022-11-29T04:50:24.619Z,13.65
2022-11-29T04:53:42.158Z,12.90
2022-11-29T04:56:29.799Z,13.30
2022-11-29T04:58:56.521Z,11.65
2022-11-29T05:01:36.366Z,11.75
2022-11-29T05:04:19.500Z,12.50
2022-11-29T05:07:38.642Z,11.93
2022-11-29T05:10:23.927Z,11.95
2022-11-29T05:13:09.028Z,10.95
2022-11-29T05:16:14.818Z,11.98
2022-11-29T05:18:47.471Z,11.95
2022-11-29T05:21:32.203Z,11.25
2022-11-29T05:24:07.934Z,12.25
2022-11-29T05:26:34.894Z,11.30
2022-11-29T05:29:18.105Z,11.70
2022-11-29T05:32:13.093Z,11.98
2022-11-29T05:35:06.024Z,11.93
2022-11-29T05:37:47.218Z,10.38
2022-11-29T05:40:16.410Z,11.07
2022-11-29T05:43:08.076Z,12.38
2022-11-29T05:45:36.444Z,10.57
2022-11-29T05:48:03.209Z,10.30
2022-11-29T05:50:37.999Z,12.18
2022-11-29T05:53:21.538Z,11.20
2022-11-29T05:56:06.762Z,12.25
2022-11-29T05:58:43.565Z,10.73
2022-11-29T06:01:28.857Z,10.88
2022-11-29T06:04:28.741Z,10.48
2022-11-29T06:07:03.287Z,10.88
2022-11-29T06:09:48.781Z,9.77
2022-11-29T06:12:23.815Z,11.65
2022-11-29T06:14:57.094Z,11.35
2022-11-29T06:17:48.773Z,12.00
2022-11-29T06:20:34.935Z,10.10
2022-11-29T06:23:08.517Z,10.65
2022-11-29T06:26:02.328Z,10.65
2022-11-29T06:28:48.862Z,11.43
2022-11-29T06:31:18.773Z,10.77
2022-11-29T06:34:09.339Z,11.10
2022-11-29T06:36:38.637Z,10.65
2022-11-29T06:39:05.648Z,10.25
2022-11-29T06:41:32.467Z,10.55
2022-11-29T06:43:59.455Z,11.98
2022-11-29T06:46:48.352Z,10.50
2022-11-29T06:49:29.166Z,11.55
2022-11-29T06:52:20.425Z,12.02
2022-11-29T06:54:47.385Z,11.88
2022-11-29T06:57:17.300Z,11.45
2022-11-29T07:00:16.748Z,15.43
2022-11-29T07:02:50.440Z,12.00
2022-11-29T07:05:31.741Z,13.05
2022-11-29T07:08:03.651Z,11.32
2022-11-29T07:10:33.587Z,10.82
2022-11-29T07:13:00.560Z,12.23
2022-11-29T07:15:28.153Z,12.48
2022-11-29T07:18:02.314Z,12.15
2022-11-29T07:20:45.427Z,12.23
2022-11-29T07:23:45.086Z,12.15
2022-11-29T07:26:19.971Z,11.95
2022-11-29T07:29:01.375Z,11.55
2022-11-29T07:31:35.374Z,12.55
2022-11-29T07:34:12.715Z,13.82
2022-11-29T07:37:11.868Z,12.75
2022-11-29T07:39:41.553Z,13.43
2022-11-29T07:42:26.957Z,13.65
2022-11-29T07:45:11.791Z,13.40
2022-11-29T07:47:38.648Z,13.60
2022-11-29T07:50:06.007Z,12.38
2022-11-29T07:52:33.445Z,12.82
2022-11-29T07:55:00.272Z,11.40
2022-11-29T07:57:27.014Z,12.35
2022-11-29T07:59:53.781Z,13.85
2022-11-29T08:02:30.846Z,13.73
2022-11-29T08:04:58.012Z,12.85
2022-11-29T08:07:24.878Z,12.18
2022-11-29T08:09:51.657Z,12.43
2022-11-29T08:12:18.532Z,12.50
2022-11-29T08:14:45.573Z,12.10
2022-11-29T08:17:12.535Z,11.70
2022-11-29T08:19:39.276Z,12.32
2022-11-29T08:22:06.139Z,13.63
2022-11-29T08:24:32.870Z,13.02
2022-11-29T08:26:59.604Z,12.27
2022-11-29T08:29:26.422Z,11.63
2022-11-29T08:31:53.981Z,10.27
2022-11-29T08:34:22.359Z,10.02
2022-11-29T08:36:50.047Z,10.60
2022-11-29T08:39:17.120Z,10.07
2022-11-29T08:41:43.886Z,10.45
2022-11-29T08:44:10.582Z,9.77
2022-11-29T08:46:55.933Z,9.70
2022-11-29T08:49:22.689Z,8.82
2022-11-29T08:51:52.216Z,9.23
2022-11-29T08:54:18.991Z,7.68
2022-11-29T08:59:32.593Z,8.02
2022-11-29T09:01:59.490Z,8.57
2022-11-29T09:04:26.438Z,8.15
2022-11-29T09:06:53.148Z,8.45
2022-11-29T09:09:19.862Z,9.20
2022-11-29T09:11:49.371Z,8.55
2022-11-29T09:14:17.009Z,8.70
2022-11-29T09:16:43.752Z,8.73
2022-11-29T09:19:10.634Z,8.68
2022-11-29T09:21:37.357Z,9.55
2022-11-29T09:24:06.472Z,8.55
2022-11-29T09:26:36.075Z,9.07
2022-11-29T09:29:04.462Z,8.60
2022-11-29T09:31:32.450Z,8.32
2022-11-29T09:33:59.258Z,8.07
2022-11-29T09:36:28.717Z,8.43
2022-11-29T09:38:56.189Z,10.45
2022-11-29T09:41:43.007Z,9.05
2022-11-29T09:44:22.612Z,9.65
2022-11-29T09:47:08.407Z,9.45
2022-11-29T09:50:12.865Z,9.85
2022-11-29T09:52:57.385Z,8.35
2022-11-29T09:55:50.187Z,8.98
2022-11-29T09:58:20.904Z,9.23
2022-11-29T10:00:51.659Z,9.57
2022-11-29T10:03:28.874Z,8.98
2022-11-29T10:06:04.864Z,9.27
2022-11-29T10:08:36.306Z,9.35
2022-11-29T10:11:14.812Z,8.02
2022-11-29T10:13:45.736Z,8.00
2022-11-29T10:16:22.529Z,9.20
2022-11-29T10:18:58.933Z,7.05
2022-11-29T10:21:29.770Z,8.27
2022-11-29T10:23:59.820Z,8.32
2022-11-29T10:26:32.039Z,8.90
2022-11-29T10:29:01.705Z,8.65
2022-11-29T10:31:42.864Z,8.43
2022-11-29T10:34:17.955Z,10.18
2022-11-29T10:36:47.428Z,8.43
2022-11-29T10:39:21.121Z,7.68
2022-11-29T10:41:52.253Z,8.52
2022-11-29T10:44:20.321Z,8.52
2022-11-29T10:46:47.012Z,8.98
2022-11-29T10:49:17.090Z,8.48
2022-11-29T10:51:45.036Z,8.52
2022-11-29T10:54:27.219Z,8.23
2022-11-29T10:56:56.715Z,8.60
2022-11-29T10:59:28.253Z,9.40
2022-11-29T11:01:55.142Z,8.57
2022-11-29T11:04:27.949Z,8.43
2022-11-29T11:06:59.897Z,8.32
2022-11-29T11:09:34.780Z,8.38
2022-11-29T11:12:04.785Z,7.65
2022-11-29T11:14:37.614Z,7.50
2022-11-29T11:17:26.202Z,7.75
2022-11-29T11:20:01.159Z,8.88
2022-11-29T11:22:28.870Z,8.48
2022-11-29T11:25:01.075Z,8.15
2022-11-29T11:27:40.091Z,9.47
2022-11-29T11:30:21.963Z,7.97
2022-11-29T11:33:08.321Z,8.23
2022-11-29T11:35:37.177Z,7.53
2022-11-29T11:38:03.949Z,7.90
2022-11-29T11:40:31.245Z,8.98
2022-11-29T11:42:59.855Z,7.53
2022-11-29T11:45:36.685Z,9.18
2022-11-29T11:48:12.313Z,8.73
2022-11-29T11:51:05.523Z,7.63
2022-11-29T11:53:36.343Z,7.53
2022-11-29T11:56:06.544Z,7.00
2022-11-29T11:58:54.489Z,7.35
2022-11-29T12:01:28.928Z,7.68
2022-11-29T12:04:04.724Z,7.32
2022-11-29T12:06:37.578Z,8.95
2022-11-29T12:09:28.573Z,7.90
2022-11-29T12:12:20.360Z,8.25
2022-11-29T12:14:58.330Z,6.97
2022-11-29T12:17:31.238Z,6.05
2022-11-29T12:20:04.603Z,6.03
2022-11-29T12:22:41.513Z,7.07
2022-11-29T12:25:16.022Z,6.28
2022-11-29T12:27:42.873Z,6.63
2022-11-29T12:30:15.605Z,5.90
2022-11-29T12:32:44.949Z,6.57
2022-11-29T12:35:23.603Z,6.00
2022-11-29T12:38:08.281Z,5.75
2022-11-29T12:41:03.473Z,5.65
2022-11-29T12:43:45.542Z,5.50
2022-11-29T12:46:23.548Z,5.90
2022-11-29T12:49:12.049Z,5.38
2022-11-29T12:51:54.925Z,5.60
2022-11-29T12:54:43.183Z,5.47
2022-11-29T12:57:14.692Z,6.03
2022-11-29T12:59:47.610Z,6.32
2022-11-29T13:02:24.427Z,6.47
2022-11-29T13:05:12.927Z,6.57
2022-11-29T13:07:59.262Z,6.55
2022-11-29T13:10:37.430Z,6.55
2022-11-29T13:13:41.837Z,6.85
2022-11-29T13:16:31.034Z,7.40
2022-11-29T13:19:25.237Z,7.15
2022-11-29T13:21:57.941Z,7.57
2022-11-29T13:24:32.730Z,7.68
2022-11-29T13:27:03.174Z,7.90
2022-11-29T13:29:30.107Z,7.90
2022-11-29T13:31:57.817Z,8.10
2022-11-29T13:34:30.334Z,8.38
2022-11-29T13:37:20.899Z,9.85
2022-11-29T13:40:06.621Z,8.35
2022-11-29T13:42:59.958Z,8.90
2022-11-29T13:45:42.819Z,8.82
2022-11-29T13:48:28.278Z,8.45
2022-11-29T13:50:56.078Z,8.95
2022-11-29T13:53:30.820Z,10.60
2022-11-29T13:56:02.046Z,9.02
2022-11-29T13:58:28.731Z,8.70
2022-11-29T14:01:14.427Z,9.55
2022-11-29T14:03:42.712Z,9.48
2022-11-29T14:06:13.505Z,8.93
2022-11-29T14:09:17.677Z,10.13
2022-11-29T14:11:49.599Z,8.77
2022-11-29T14:14:16.245Z,8.68
2022-11-29T14:16:42.999Z,7.97
2022-11-29T14:19:13.019Z,8.13
2022-11-29T14:22:07.271Z,9.60
2022-11-29T14:24:36.830Z,9.52
2022-11-29T14:27:06.314Z,9.05
2022-11-29T14:29:53.611Z,9.45
2022-11-29T14:32:46.364Z,8.57
2022-11-29T14:35:14.995Z,8.45
2022-11-29T14:38:06.434Z,9.50
2022-11-29T14:40:42.129Z,9.07
2022-11-29T14:43:27.328Z,8.73
2022-11-29T14:46:16.000Z,9.30
2022-11-29T14:48:56.763Z,8.52
2022-11-29T14:51:25.412Z,7.78
2022-11-29T14:54:05.216Z,8.90
2022-11-29T14:56:31.981Z,9.40
2022-11-29T14:59:36.122Z,7.47
2022-11-29T15:02:07.505Z,8.32
2022-11-29T15:04:35.852Z,7.57
2022-11-29T15:07:03.195Z,8.43
2022-11-29T15:09:32.561Z,7.63
2022-11-29T15:12:02.626Z,8.27
2022-11-29T15:14:48.078Z,9.60
2022-11-29T15:17:27.022Z,9.02
2022-11-29T15:20:30.861Z,8.90
2022-11-29T15:25:33.624Z,8.57
2022-11-29T15:28:05.887Z,9.27
2022-11-29T15:30:42.037Z,9.43
2022-11-29T15:33:24.897Z,8.88
2022-11-29T15:35:57.157Z,9.23
2022-11-29T15:38:24.477Z,9.37
2022-11-29T15:40:53.443Z,8.90
2022-11-29T15:43:23.667Z,9.52
2022-11-29T15:45:55.458Z,9.40
2022-11-29T15:48:27.126Z,9.57
2022-11-29T15:50:56.745Z,9.02
2022-11-29T15:53:44.749Z,10.02
2022-11-29T15:56:35.855Z,9.30
2022-11-29T15:59:09.259Z,10.52
2022-11-29T16:01:37.588Z,9.52
2022-11-29T16:04:04.462Z,10.68
2022-11-29T16:06:34.421Z,10.80
2022-11-29T16:09:01.574Z,9.85
2022-11-29T16:11:31.044Z,9.80
2022-11-29T16:14:11.858Z,9.68
2022-11-29T16:16:40.244Z,9.60
2022-11-29T16:19:34.392Z,8.82
2022-11-29T16:22:09.877Z,9.52
2022-11-29T16:24:40.961Z,9.80
2022-11-29T16:27:08.140Z,10.80
2022-11-29T16:29:37.774Z,10.02
2022-11-29T16:32:14.977Z,9.85
2022-11-29T16:34:43.089Z,10.13
2022-11-29T16:37:25.105Z,10.10
2022-11-29T16:39:55.562Z,10.45
2022-11-29T16:42:28.159Z,9.32
2022-11-29T16:45:00.216Z,9.05
2022-11-29T16:47:29.793Z,10.80
2022-11-29T16:50:21.061Z,11.00
2022-11-29T16:52:52.009Z,10.13
2022-11-29T16:55:21.972Z,11.93
2022-11-29T16:57:48.926Z,11.30
2022-11-29T17:00:25.541Z,10.90
2022-11-29T17:02:52.294Z,11.38
2022-11-29T17:05:19.194Z,12.27
2022-11-29T17:07:46.211Z,11.77
2022-11-29T17:10:17.844Z,12.35
2022-11-29T17:12:48.198Z,13.45
2022-11-29T17:15:16.667Z,14.02
2022-11-29T17:17:46.062Z,14.18
2022-11-29T17:20:14.036Z,13.07
2022-11-29T17:22:41.292Z,13.18
2022-11-29T17:25:08.510Z,13.20
2022-11-29T17:27:35.726Z,14.93
2022-11-29T17:30:03.475Z,14.00
2022-11-29T17:32:31.080Z,13.63
2022-11-29T17:34:57.794Z,13.32
2022-11-29T17:37:24.433Z,14.40
2022-11-29T17:39:51.460Z,14.60
2022-11-29T17:42:18.279Z,17.15
2022-11-29T17:44:44.931Z,16.42
2022-11-29T17:47:11.572Z,17.05
2022-11-29T17:49:38.218Z,17.73
2022-11-29T17:52:05.286Z,18.67
2022-11-29T17:54:35.948Z,18.52
2022-11-29T17:57:04.424Z,18.85
2022-11-29T17:59:31.088Z,18.60
2022-11-29T18:01:57.736Z,20.35
2022-11-29T18:04:24.408Z,22.25
2022-11-29T18:06:51.118Z,22.25
2022-11-29T18:09:18.527Z,20.10
2022-11-29T18:11:49.008Z,19.00
2022-11-29T18:14:22.825Z,19.83
2022-11-29T18:16:50.084Z,20.55
2022-11-29T18:19:19.004Z,20.05
2022-11-29T18:21:46.146Z,20.98
2022-11-29T18:24:12.938Z,21.13
2022-11-29T18:26:40.155Z,19.85
2022-11-29T18:29:07.408Z,20.10
2022-11-29T18:31:36.291Z,19.00
2022-11-29T18:34:09.829Z,19.17
2022-11-29T18:36:39.562Z,18.45
2022-11-29T18:39:08.948Z,19.73
2022-11-29T18:41:36.039Z,17.77
2022-11-29T18:44:08.286Z,19.17
2022-11-29T18:46:37.349Z,20.33
2022-11-29T18:49:06.561Z,20.70
2022-11-29T18:51:34.173Z,19.63
2022-11-29T18:54:01.353Z,18.50
2022-11-29T18:56:30.574Z,19.92
2022-11-29T18:58:59.877Z,20.52
2022-11-29T19:01:28.605Z,21.23
2022-11-29T19:03:57.728Z,20.20
2022-11-29T19:06:39.318Z,19.38
2022-11-29T19:09:11.124Z,18.30
2022-11-29T19:11:37.857Z,17.80
2022-11-29T19:14:06.444Z,17.73
2022-11-29T19:16:34.514Z,18.75
2022-11-29T19:19:01.556Z,18.60
2022-11-29T19:21:31.653Z,19.40
2022-11-29T19:24:00.104Z,18.70
2022-11-29T19:26:28.086Z,17.90
2022-11-29T19:28:55.113Z,20.92
2022-11-29T19:31:24.988Z,21.77
2022-11-29T19:33:52.577Z,24.10
2022-11-29T19:36:30.532Z,23.45
2022-11-29T19:38:59.573Z,22.08
2022-11-29T19:41:28.673Z,19.85
2022-11-29T19:44:00.109Z,18.48
2022-11-29T19:46:29.607Z,18.75
2022-11-29T19:48:57.357Z,19.00
2022-11-29T19:51:25.093Z,19.00
2022-11-29T19:53:53.430Z,18.25
2022-11-29T19:56:20.807Z,16.58
2022-11-29T19:58:48.821Z,18.50
2022-11-29T20:01:25.014Z,20.15
2022-11-29T20:03:52.543Z,18.08
2022-11-29T20:06:19.447Z,19.17
2022-11-29T20:08:46.235Z,17.48
2022-11-29T20:11:16.267Z,19.27
2022-11-29T20:13:44.504Z,20.15
2022-11-29T20:16:15.904Z,19.45
2022-11-29T20:18:50.356Z,19.42
2022-11-29T20:21:29.156Z,19.25
2022-11-29T20:23:56.945Z,18.17
2022-11-29T20:26:24.058Z,18.17
2022-11-29T20:28:50.884Z,18.17
2022-11-29T20:31:21.230Z,18.25
2022-11-29T20:33:51.233Z,19.30
2022-11-29T20:36:55.404Z,17.30
2022-11-29T20:39:42.446Z,18.63
2022-11-29T20:42:37.380Z,18.83
2022-11-29T20:45:10.682Z,17.25
2022-11-29T20:47:55.918Z,20.27
2022-11-29T20:50:28.115Z,17.15
2022-11-29T20:53:15.494Z,17.50
2022-11-29T20:55:48.108Z,17.25
2022-11-29T20:58:16.160Z,17.17
2022-11-29T21:00:43.331Z,17.10
2022-11-29T21:03:14.507Z,16.88
2022-11-29T21:05:41.959Z,17.85
2022-11-29T21:08:08.817Z,18.35
2022-11-29T21:10:35.887Z,16.92
2022-11-29T21:13:05.220Z,18.83
2022-11-29T21:15:35.449Z,18.67
2022-11-29T21:18:02.707Z,19.08
2022-11-29T21:20:29.772Z,18.63
2022-11-29T21:23:07.002Z,17.90
2022-11-29T21:25:54.360Z,18.13
2022-11-29T21:28:25.099Z,18.95
2022-11-29T21:30:52.124Z,21.48
2022-11-29T21:33:19.111Z,21.52
2022-11-29T21:35:45.871Z,17.02
2022-11-29T21:38:22.577Z,18.20
2022-11-29T21:40:49.360Z,17.80
2022-11-29T21:43:16.084Z,17.50
2022-11-29T21:45:42.940Z,17.77
2022-11-29T21:48:29.639Z,16.92
2022-11-29T21:50:56.621Z,17.75
2022-11-29T21:53:23.739Z,17.20
2022-11-29T21:55:56.326Z,16.52
2022-11-29T21:58:23.080Z,16.52
2022-11-29T22:00:49.802Z,17.75
2022-11-29T22:03:17.044Z,16.55
2022-11-29T22:05:43.784Z,18.13
2022-11-29T22:08:10.585Z,17.38
2022-11-29T22:10:37.380Z,17.05
2022-11-29T22:13:04.226Z,17.65
2022-11-29T22:15:32.011Z,17.88
2022-11-29T22:17:59.108Z,15.90
2022-11-29T22:20:25.873Z,17.17
2022-11-29T22:22:58.439Z,17.02
2022-11-29T22:25:25.487Z,17.08
2022-11-29T22:27:52.234Z,18.38
2022-11-29T22:30:19.736Z,18.65
2022-11-29T22:32:46.613Z,21.10
2022-11-29T22:35:13.337Z,20.58
2022-11-29T22:37:40.088Z,20.58
2022-11-29T22:40:07.321Z,20.80
2022-11-29T22:42:34.182Z,22.30
2022-11-29T22:45:02.146Z,18.95
2022-11-29T22:47:28.899Z,18.98
2022-11-29T22:49:55.725Z,18.02
2022-11-29T22:52:22.458Z,17.05
2022-11-29T22:54:49.380Z,17.98
2022-11-29T22:57:16.321Z,17.48
2022-11-29T22:59:43.166Z,18.55
2022-11-29T23:02:09.946Z,19.77
2022-11-29T23:04:36.708Z,18.85
2022-11-29T23:07:03.520Z,18.17
2022-11-29T23:09:30.163Z,16.50
2022-11-29T23:11:57.177Z,18.15
2022-11-29T23:14:23.966Z,18.50
2022-11-29T23:16:50.926Z,17.00
2022-11-29T23:19:17.880Z,18.77
2022-11-29T23:21:45.905Z,16.60
2022-11-29T23:24:14.196Z,19.35
2022-11-29T23:26:44.108Z,18.17
2022-11-29T23:29:14.137Z,18.02
2022-11-29T23:31:41.016Z,17.30
2022-11-29T23:34:08.286Z,16.80
2022-11-29T23:36:35.199Z,18.55
2022-11-29T23:39:04.422Z,18.13
2022-11-29T23:41:31.233Z,19.83
2022-11-29T23:43:59.652Z,20.40
2022-11-29T23:46:26.711Z,19.92
2022-11-29T23:48:53.411Z,21.50
2022-11-29T23:51:20.472Z,18.05
2022-11-29T23:53:52.258Z,19.13
2022-11-29T23:56:19.977Z,22.02
2022-11-29T23:58:47.285Z,21.98
